Página principal
METAR-TAF:

METAR-TAF

Aeroportos :

Aeroporto Internacional de Mitiga

Trípoli, Líbia

latitude: 32-54N, longitude: 13-17E, altura: 11 m

METAR: em falta

Hora: 01:33 (23:33 UTC)

Previsão

O boletim foi feito há 6 horas e 33 minutos, às 17:00 UTC
Previsão válida de 15 às 18 UTC a 16 às 03 UTC
Vento 10 kt de sudeste
Visibilidade: 8000 m

TAF: HLLM 151700Z 1518/1603 14010KT 8000 NSC

Observações e previsões do tempo de mais de 4000 aeroportos (mensagens METAR e TAF).

As estações disponíveis são os pontos amarelos e vermelhos sobre o mapa.

Mova o rato sobre o mapa para ver o nome da estação.

Depois clique no ponto para visualizar as observações e previsões meteorológicas.

Para alterar o mapa : clique nos botões verdes com uma cruz preta para aumentar o zoom; no botão verde com uma pitada de zoom; ou nas setas verdes para mapas adjacentes.


METAR-TAF: